Las Vegas, Nevada
Traffic Map
Current Weather Conditions
Las Vegas, Nevada
Few Clouds
Few Clouds
66°
Feels Like: 66°
Wind Chill: 66° Ceiling: Unl
Heat Index: 66° Visibility: 10mi
Dew Point: 19° Wind: 8mph
Humidity: 17% Direction: 290° (WNW)
Pressure: 29.95in Gusts: 0mph
Raw Report DataKLAS 270456Z 29007KT 10SM FEW250 19/M07 A2995 RMK AO2 SLP129 T01891072 $
Traffic Incident Summary
Active as of:
Severity:
Category:
InformationThere was an issue retrieving the traffic information for this location. Please try a different location or try again shortly.
Advertisements
Track Severe Weather on mobile